createdAt,value
2023-05-22T00:02:10.879Z,21004.97
2023-05-22T00:04:40.010Z,20968.38
2023-05-22T00:07:09.641Z,20990.75
2023-05-22T00:09:37.826Z,20937.91
2023-05-22T00:12:06.960Z,20946.03
2023-05-22T00:14:35.078Z,20919.59
2023-05-22T00:17:03.468Z,20929.75
2023-05-22T00:19:33.122Z,20964.31
2023-05-22T00:22:01.492Z,20911.47
2023-05-22T00:24:31.916Z,20941.97
2023-05-22T00:27:00.100Z,20903.34
2023-05-22T00:29:28.243Z,20876.91
2023-05-22T00:31:56.422Z,20901.31
2023-05-22T00:34:24.601Z,20891.13
2023-05-22T00:36:52.795Z,20893.16
2023-05-22T00:39:21.323Z,20836.25
2023-05-22T00:41:50.857Z,20883.00
2023-05-22T00:44:18.976Z,20907.41
2023-05-22T00:46:47.197Z,20854.53
2023-05-22T00:49:15.417Z,20848.44
2023-05-22T00:51:43.734Z,20803.72
2023-05-22T00:54:13.613Z,20838.28
2023-05-22T00:56:43.566Z,20846.41
2023-05-22T00:59:13.516Z,20874.88
2023-05-22T01:01:42.985Z,20870.81
2023-05-22T01:04:14.710Z,20846.41
2023-05-22T01:06:42.932Z,20846.41
2023-05-22T01:09:11.130Z,20828.13
2023-05-22T01:11:49.060Z,20807.78
2023-05-22T01:14:30.473Z,20856.56
2023-05-22T01:17:11.269Z,20840.31
2023-05-22T01:20:06.961Z,20779.31
2023-05-22T01:23:30.729Z,20752.91
2023-05-22T01:26:21.757Z,20793.56
2023-05-22T01:29:31.817Z,20797.63
2023-05-22T01:32:04.090Z,20785.44
2023-05-22T01:34:36.498Z,20783.41
2023-05-22T01:37:07.053Z,20797.63
2023-05-22T01:39:36.656Z,20805.75
2023-05-22T01:42:06.648Z,20838.28
2023-05-22T01:44:34.793Z,20769.16
2023-05-22T01:47:05.781Z,20765.09
2023-05-22T01:49:35.657Z,20763.06
2023-05-22T01:52:13.876Z,20767.13
2023-05-22T01:54:52.687Z,20765.09
2023-05-22T01:57:29.981Z,20752.91
2023-05-22T02:00:09.813Z,20736.63
2023-05-22T02:02:43.311Z,20744.78
2023-05-22T02:05:13.651Z,20724.44
2023-05-22T02:07:44.493Z,20746.81
2023-05-22T02:10:15.009Z,20736.63
2023-05-22T02:12:43.527Z,20726.47
2023-05-22T02:15:12.701Z,20752.91
2023-05-22T02:17:42.577Z,20718.34
2023-05-22T02:20:15.083Z,20677.69
2023-05-22T02:22:45.037Z,20734.59
2023-05-22T02:25:15.164Z,20708.19
2023-05-22T02:27:44.095Z,20738.66
2023-05-22T02:30:13.312Z,20716.31
2023-05-22T02:32:43.616Z,20691.91
2023-05-22T02:35:11.973Z,20695.97
2023-05-22T02:37:42.178Z,20722.41
2023-05-22T02:40:11.693Z,20689.88
2023-05-22T02:42:39.868Z,20669.56
2023-05-22T02:45:10.029Z,20706.16
2023-05-22T02:47:38.190Z,20700.03
2023-05-22T02:50:09.010Z,20635.00
2023-05-22T02:52:39.285Z,20673.63
2023-05-22T02:55:09.144Z,20661.44
2023-05-22T02:57:37.300Z,20659.38
2023-05-22T03:00:06.923Z,20679.72
2023-05-22T03:02:36.420Z,20655.31
2023-05-22T03:05:05.391Z,20602.47
2023-05-22T03:07:34.864Z,20675.66
2023-05-22T03:10:03.000Z,20635.00
2023-05-22T03:12:31.139Z,20639.06
2023-05-22T03:14:59.256Z,20628.91
2023-05-22T03:17:27.420Z,20673.63
2023-05-22T03:19:55.587Z,20628.91
2023-05-22T03:22:23.703Z,20669.56
2023-05-22T03:24:53.475Z,20639.06
2023-05-22T03:27:21.649Z,20655.31
2023-05-22T03:29:49.789Z,20716.31
2023-05-22T03:32:17.922Z,20667.53
2023-05-22T03:34:46.236Z,20693.94
2023-05-22T03:37:14.425Z,20681.75
2023-05-22T03:39:42.638Z,20700.03
2023-05-22T03:42:13.377Z,20698.00
2023-05-22T03:44:41.527Z,20728.50
2023-05-22T03:47:09.676Z,20728.50
2023-05-22T03:49:37.796Z,20746.81
2023-05-22T03:52:06.370Z,20700.03
2023-05-22T03:54:34.550Z,20752.91
2023-05-22T03:57:03.631Z,20720.38
2023-05-22T03:59:33.130Z,20700.03
2023-05-22T04:02:01.705Z,20700.03
2023-05-22T04:04:29.948Z,20712.25
2023-05-22T04:06:59.230Z,20750.88
2023-05-22T04:09:28.454Z,20744.78
2023-05-22T04:11:56.603Z,20742.75
2023-05-22T04:14:24.794Z,20779.31
2023-05-22T04:16:55.116Z,20789.50
2023-05-22T04:19:23.335Z,20820.00
2023-05-22T04:21:51.479Z,20793.56
2023-05-22T04:24:19.674Z,20868.78
2023-05-22T04:26:47.861Z,20838.28
2023-05-22T04:29:16.519Z,20889.09
2023-05-22T04:31:44.736Z,20822.03
2023-05-22T04:34:17.127Z,20860.66
2023-05-22T04:36:46.476Z,20826.09
2023-05-22T04:39:15.804Z,20860.66
2023-05-22T04:41:44.336Z,20899.28
2023-05-22T04:44:12.439Z,20842.34
2023-05-22T04:46:40.612Z,20876.91
2023-05-22T04:49:08.924Z,20911.47
2023-05-22T04:51:38.354Z,20950.09
2023-05-22T04:54:06.524Z,20946.03
2023-05-22T04:56:36.810Z,20994.81
2023-05-22T04:59:08.712Z,21021.25
2023-05-22T05:01:37.848Z,21055.81
2023-05-22T05:04:06.590Z,21039.53
2023-05-22T05:06:35.811Z,21068.00
2023-05-22T05:09:05.551Z,21061.91
2023-05-22T05:11:33.648Z,21088.34
2023-05-22T05:14:01.754Z,21137.13
2023-05-22T05:16:29.950Z,21198.13
2023-05-22T05:18:58.271Z,21198.13
2023-05-22T05:21:27.803Z,21224.56
2023-05-22T05:23:56.020Z,21269.28
2023-05-22T05:26:27.146Z,21285.53
2023-05-22T05:28:56.596Z,21255.03
2023-05-22T05:31:24.880Z,21259.13
2023-05-22T05:33:53.051Z,21299.78
2023-05-22T05:36:21.155Z,21307.91
2023-05-22T05:38:49.206Z,21336.38
2023-05-22T05:41:18.937Z,21350.59
2023-05-22T05:43:48.495Z,21322.13
2023-05-22T05:46:16.638Z,21379.06
2023-05-22T05:48:44.791Z,21344.50
2023-05-22T05:51:12.861Z,21427.88
2023-05-22T05:53:41.589Z,21419.72
2023-05-22T05:56:10.577Z,21401.44
2023-05-22T05:58:38.976Z,21431.94
2023-05-22T06:01:08.489Z,21476.66
2023-05-22T06:03:36.642Z,21480.72
2023-05-22T06:06:05.467Z,21507.16
2023-05-22T06:08:34.435Z,21519.34
2023-05-22T06:11:03.339Z,21533.59
2023-05-22T06:13:31.416Z,21523.44
2023-05-22T06:16:02.802Z,21527.50
2023-05-22T06:18:34.386Z,21533.59
2023-05-22T06:21:02.478Z,21570.19
2023-05-22T06:23:30.842Z,21574.25
2023-05-22T06:25:58.892Z,21647.47
2023-05-22T06:28:26.943Z,21718.63
2023-05-22T06:30:55.034Z,21767.44
2023-05-22T06:33:23.269Z,21720.66
2023-05-22T06:35:52.849Z,21736.94
2023-05-22T06:38:20.951Z,21789.78
2023-05-22T06:40:49.290Z,21777.59
2023-05-22T06:43:17.548Z,21826.41
2023-05-22T06:45:46.006Z,21818.25
2023-05-22T06:48:14.216Z,21848.75
2023-05-22T06:50:42.418Z,21850.78
2023-05-22T06:53:12.625Z,21865.03
2023-05-22T06:55:40.694Z,21863.00
2023-05-22T06:58:08.800Z,21921.97
2023-05-22T07:00:36.991Z,21903.66
2023-05-22T07:03:06.684Z,21907.72
2023-05-22T07:05:34.916Z,21954.50
2023-05-22T07:08:03.057Z,21978.91
2023-05-22T07:10:32.437Z,21980.94
2023-05-22T07:13:00.556Z,21954.50
2023-05-22T07:15:28.639Z,21997.19
2023-05-22T07:17:56.820Z,22013.47
2023-05-22T07:20:26.143Z,22058.22
2023-05-22T07:22:54.307Z,22050.06
2023-05-22T07:25:22.368Z,22084.66
2023-05-22T07:27:52.013Z,22084.66
2023-05-22T07:30:20.133Z,22009.41
2023-05-22T07:32:49.440Z,22011.44
2023-05-22T07:35:17.914Z,21987.03
2023-05-22T07:37:46.061Z,21997.19
2023-05-22T07:40:14.411Z,21954.50
2023-05-22T07:42:42.567Z,21905.69
2023-05-22T07:45:12.745Z,21891.47
2023-05-22T07:47:40.839Z,21883.31
2023-05-22T07:50:10.447Z,21928.06
2023-05-22T07:52:38.679Z,21913.84
2023-05-22T07:55:08.728Z,21950.44
2023-05-22T07:57:36.888Z,21972.81
2023-05-22T08:00:13.909Z,22015.50
2023-05-22T08:02:44.035Z,22054.13
2023-05-22T08:05:12.551Z,22068.38
2023-05-22T08:07:40.779Z,22170.06
2023-05-22T08:10:16.609Z,22214.78
2023-05-22T08:12:45.093Z,22229.03
2023-05-22T08:15:13.438Z,22251.41
2023-05-22T08:17:42.992Z,22192.44
2023-05-22T08:20:12.379Z,22133.44
2023-05-22T08:22:41.345Z,22107.00
2023-05-22T08:25:10.613Z,22125.31
2023-05-22T08:31:44.646Z,22072.44
2023-05-22T08:34:14.182Z,22090.75
2023-05-22T08:36:42.320Z,22102.94
2023-05-22T08:39:12.146Z,22147.69
2023-05-22T08:41:40.364Z,22184.28
2023-05-22T08:44:08.588Z,22261.56
2023-05-22T08:46:38.214Z,22257.50
2023-05-22T08:49:07.001Z,22316.47
2023-05-22T08:51:42.266Z,22318.50
2023-05-22T08:54:10.877Z,22371.38
2023-05-22T08:56:52.976Z,22355.13
2023-05-22T08:59:24.507Z,22369.34
2023-05-22T09:01:53.834Z,22338.84
2023-05-22T09:04:24.204Z,22306.31
2023-05-22T09:06:55.127Z,22377.47
2023-05-22T09:09:23.384Z,22371.38
2023-05-22T09:11:51.849Z,22448.66
2023-05-22T09:14:20.395Z,22538.16
2023-05-22T09:16:51.120Z,22611.38
2023-05-22T09:19:20.053Z,22536.13
2023-05-22T09:21:48.606Z,22605.25
2023-05-22T09:24:18.201Z,22593.06
2023-05-22T09:26:46.423Z,22682.56
2023-05-22T09:29:14.598Z,22709.00
2023-05-22T09:31:45.127Z,22735.44
2023-05-22T09:34:15.404Z,22709.00
2023-05-22T09:36:45.299Z,22745.59
2023-05-22T09:39:13.679Z,22755.78
2023-05-22T09:41:45.801Z,22731.38
2023-05-22T09:44:15.012Z,22729.34
2023-05-22T09:46:45.257Z,22676.44
2023-05-22T09:49:16.414Z,22747.63
2023-05-22T09:51:48.787Z,22755.78
2023-05-22T09:54:21.677Z,22743.56
2023-05-22T09:56:56.169Z,22704.94
2023-05-22T09:59:31.405Z,22704.94
2023-05-22T10:02:01.817Z,22664.25
2023-05-22T10:04:35.750Z,22709.00
2023-05-22T10:07:04.853Z,22729.34
2023-05-22T10:09:37.066Z,22765.94
2023-05-22T10:12:10.765Z,22761.88
2023-05-22T10:14:39.074Z,22800.50
2023-05-22T10:17:07.940Z,22853.41
2023-05-22T10:19:40.692Z,22894.06
2023-05-22T10:22:20.638Z,22920.53
2023-05-22T10:24:49.575Z,22983.56
2023-05-22T10:27:19.276Z,23020.19
2023-05-22T10:29:58.204Z,23026.28
2023-05-22T10:32:36.735Z,23046.63
2023-05-22T10:35:19.418Z,23012.06
2023-05-22T10:37:54.237Z,23030.34
2023-05-22T10:40:30.253Z,22973.41
2023-05-22T10:43:01.801Z,22940.84
2023-05-22T10:45:31.670Z,22993.75
2023-05-22T10:48:08.001Z,22959.16
2023-05-22T10:50:37.717Z,22940.84
2023-05-22T10:53:24.828Z,22961.19
2023-05-22T10:55:54.653Z,22922.56
2023-05-22T10:58:30.374Z,22955.09
2023-05-22T11:01:15.867Z,22961.19
2023-05-22T11:03:56.216Z,22961.19
2023-05-22T11:06:36.504Z,22949.00
2023-05-22T11:09:28.861Z,23038.50
2023-05-22T11:12:27.406Z,23038.50
2023-05-22T11:14:59.520Z,23050.69
2023-05-22T11:17:29.704Z,23081.22
2023-05-22T11:20:05.171Z,23095.44
2023-05-22T11:22:36.576Z,23073.06
2023-05-22T11:25:11.593Z,23113.75
2023-05-22T11:27:42.773Z,23046.63
2023-05-22T11:30:15.864Z,23042.56
2023-05-22T11:32:46.565Z,23014.09
2023-05-22T11:35:19.912Z,22936.78
2023-05-22T11:37:49.909Z,22942.91
2023-05-22T11:40:20.981Z,22985.59
2023-05-22T11:42:49.556Z,22965.28
2023-05-22T11:45:19.093Z,22871.72
2023-05-22T11:47:48.495Z,22833.06
2023-05-22T11:50:22.606Z,22875.78
2023-05-22T11:52:56.270Z,22865.59
2023-05-22T11:55:25.163Z,22867.63
2023-05-22T11:57:56.830Z,22898.16
2023-05-22T12:00:26.808Z,22951.03
2023-05-22T12:02:55.943Z,22963.22
2023-05-22T12:05:24.086Z,22983.56
2023-05-22T12:07:52.434Z,22965.28
2023-05-22T12:10:20.921Z,23005.94
2023-05-22T12:12:49.130Z,22985.59
2023-05-22T12:15:21.014Z,23022.22
2023-05-22T12:17:50.475Z,23038.50
2023-05-22T12:20:18.683Z,22989.69
2023-05-22T12:22:46.843Z,22971.38
2023-05-22T12:25:17.518Z,22989.69
2023-05-22T12:27:46.214Z,23038.50
2023-05-22T12:30:16.600Z,22985.59
2023-05-22T12:32:51.580Z,22989.69
2023-05-22T12:35:20.701Z,22953.06
2023-05-22T12:37:53.096Z,23036.47
2023-05-22T12:40:21.186Z,22993.75
2023-05-22T12:42:50.097Z,23034.44
2023-05-22T12:45:18.817Z,23123.94
2023-05-22T12:47:47.123Z,23097.47
2023-05-22T12:50:16.875Z,23097.47
2023-05-22T12:52:44.988Z,23121.88
2023-05-22T12:55:13.122Z,23138.16
2023-05-22T12:57:41.207Z,23193.09
2023-05-22T13:00:11.181Z,23174.78
2023-05-22T13:02:39.414Z,23215.47
2023-05-22T13:05:08.508Z,23213.44
2023-05-22T13:07:38.552Z,23243.94
2023-05-22T13:10:08.221Z,23233.75
2023-05-22T13:12:36.305Z,23266.31
2023-05-22T13:15:04.562Z,23245.97
2023-05-22T13:17:32.714Z,23252.06
2023-05-22T13:20:01.120Z,23294.78
2023-05-22T13:22:29.429Z,23329.38
2023-05-22T13:24:58.810Z,23355.81
2023-05-22T13:27:27.441Z,23315.13
2023-05-22T13:29:55.532Z,23341.56
2023-05-22T13:32:23.649Z,23363.94
2023-05-22T13:34:51.801Z,23384.28
2023-05-22T13:37:20.044Z,23341.56
2023-05-22T13:39:48.358Z,23363.94
2023-05-22T13:42:17.856Z,23315.13
2023-05-22T13:44:46.007Z,23286.66
2023-05-22T13:47:14.136Z,23260.22
2023-05-22T13:49:42.262Z,23260.22
2023-05-22T13:52:10.403Z,23349.72
2023-05-22T13:54:38.440Z,23333.44
2023-05-22T13:57:07.590Z,23404.63
2023-05-22T13:59:37.005Z,23439.22
2023-05-22T14:02:05.683Z,23518.56
2023-05-22T14:04:33.950Z,23569.41
2023-05-22T14:07:02.011Z,23559.25
2023-05-22T14:09:31.137Z,23622.31
2023-05-22T14:11:59.195Z,23616.19
2023-05-22T14:14:27.291Z,23559.25
2023-05-22T14:16:56.810Z,23604.00
2023-05-22T14:19:25.467Z,23642.66
2023-05-22T14:21:53.624Z,23774.88
2023-05-22T14:24:21.802Z,23856.25
2023-05-22T14:26:49.836Z,23949.84
2023-05-22T14:29:18.194Z,24004.78
2023-05-22T14:31:49.796Z,23909.16
2023-05-22T14:34:20.927Z,23935.59
2023-05-22T14:36:48.960Z,23935.59
2023-05-22T14:39:17.077Z,23903.06
2023-05-22T14:41:45.192Z,23909.16
2023-05-22T14:44:13.252Z,23817.59
2023-05-22T14:46:41.305Z,23748.44
2023-05-22T14:49:09.406Z,23715.88
2023-05-22T14:51:38.788Z,23681.31
2023-05-22T14:54:07.698Z,23705.72
2023-05-22T14:56:35.988Z,23701.66
2023-05-22T14:59:04.057Z,23711.81
2023-05-22T15:01:32.151Z,23695.53
2023-05-22T15:04:00.256Z,23648.75
2023-05-22T15:06:28.943Z,23652.81
2023-05-22T15:08:58.373Z,23632.47
2023-05-22T15:11:27.158Z,23567.38
2023-05-22T15:13:55.426Z,23545.00
2023-05-22T15:16:23.593Z,23506.34
2023-05-22T15:18:52.373Z,23516.53
2023-05-22T15:21:20.558Z,23506.34
2023-05-22T15:23:48.617Z,23490.06
2023-05-22T15:26:18.084Z,23414.81
2023-05-22T15:28:46.156Z,23370.06
2023-05-22T15:31:14.847Z,23398.53
2023-05-22T15:33:43.037Z,23394.47
2023-05-22T15:36:11.086Z,23376.16
2023-05-22T15:38:39.212Z,23410.75
2023-05-22T15:41:07.298Z,23372.09
2023-05-22T15:43:36.714Z,23424.97
2023-05-22T15:46:04.985Z,23427.00
2023-05-22T15:48:33.307Z,23388.38
2023-05-22T15:51:01.423Z,23317.16
2023-05-22T15:53:29.436Z,23292.75
2023-05-22T15:55:57.478Z,23258.19
2023-05-22T15:58:25.561Z,23294.78
2023-05-22T16:00:56.589Z,23258.19
2023-05-22T16:03:25.124Z,23248.00
2023-05-22T16:05:53.528Z,23225.63
2023-05-22T16:08:21.634Z,23203.25
2023-05-22T16:10:49.806Z,23164.59
2023-05-22T16:13:18.114Z,23199.19
2023-05-22T16:15:46.175Z,23233.75
2023-05-22T16:18:15.613Z,23213.44
2023-05-22T16:20:43.678Z,23191.06
2023-05-22T16:23:11.691Z,23115.78
2023-05-22T16:25:39.828Z,23160.53
2023-05-22T16:28:08.129Z,23152.41
2023-05-22T16:30:36.568Z,23101.53
2023-05-22T16:33:04.857Z,23103.59
2023-05-22T16:35:34.349Z,23089.34
2023-05-22T16:38:03.464Z,23099.50
2023-05-22T16:40:31.617Z,23060.88
2023-05-22T16:42:59.678Z,22999.84
2023-05-22T16:45:27.872Z,23032.38
2023-05-22T16:47:56.269Z,22983.56
2023-05-22T16:50:24.424Z,22951.03
2023-05-22T16:52:53.839Z,22912.38
2023-05-22T16:55:22.108Z,22875.78
2023-05-22T16:57:50.435Z,22855.44
2023-05-22T17:00:20.096Z,22798.47
2023-05-22T17:02:48.538Z,22784.25
2023-05-22T17:05:16.747Z,22790.34
2023-05-22T17:07:44.816Z,22794.41
2023-05-22T17:10:14.905Z,22749.66
2023-05-22T17:12:42.972Z,22737.47
2023-05-22T17:15:12.686Z,22759.84
2023-05-22T17:17:40.791Z,22702.88
2023-05-22T17:20:11.677Z,22713.06
2023-05-22T17:22:40.089Z,22621.53
2023-05-22T17:25:09.593Z,22674.41
2023-05-22T17:27:38.972Z,22629.66
2023-05-22T17:30:08.771Z,22627.63
2023-05-22T17:32:37.097Z,22635.78
2023-05-22T17:35:06.445Z,22591.03
2023-05-22T17:37:34.822Z,22538.16
2023-05-22T17:40:03.840Z,22546.28
2023-05-22T17:42:31.898Z,22519.84
2023-05-22T17:45:01.298Z,22440.53
2023-05-22T17:47:29.349Z,22473.06
2023-05-22T17:49:57.442Z,22430.38
2023-05-22T17:52:25.701Z,22385.63
2023-05-22T17:54:55.851Z,22346.97
2023-05-22T17:57:23.992Z,22328.69
2023-05-22T17:59:52.096Z,22310.38
2023-05-22T18:02:21.648Z,22294.09
2023-05-22T18:04:49.849Z,22255.47
2023-05-22T18:07:19.214Z,22265.63
2023-05-22T18:09:47.391Z,22253.44
2023-05-22T18:12:31.316Z,22253.44
2023-05-22T18:15:00.762Z,22273.78
2023-05-22T18:17:30.435Z,22196.50
2023-05-22T18:19:58.618Z,22235.13
2023-05-22T18:22:26.785Z,22200.56
2023-05-22T18:25:01.292Z,22139.56
2023-05-22T18:27:29.450Z,22143.63
2023-05-22T18:29:58.205Z,22102.94
2023-05-22T18:32:26.487Z,22119.22
2023-05-22T18:34:58.424Z,22086.69
2023-05-22T18:37:26.598Z,22052.09
2023-05-22T18:39:54.787Z,22062.28
2023-05-22T18:42:22.919Z,22039.91
2023-05-22T18:44:51.094Z,22039.91
2023-05-22T18:47:19.228Z,21972.81
2023-05-22T18:49:47.430Z,21974.84
2023-05-22T18:52:16.946Z,21978.91
2023-05-22T18:54:45.061Z,21913.84
2023-05-22T18:57:13.849Z,21934.16
2023-05-22T18:59:42.343Z,21930.09
2023-05-22T19:02:10.640Z,21919.94
2023-05-22T19:04:38.868Z,22001.28
2023-05-22T19:07:07.806Z,21930.09
2023-05-22T19:09:38.252Z,21895.53
2023-05-22T19:12:07.377Z,21871.13
2023-05-22T19:14:35.576Z,21850.78
2023-05-22T19:17:03.774Z,21879.25
2023-05-22T19:19:31.971Z,21869.09
2023-05-22T19:22:00.184Z,21867.06
2023-05-22T19:24:28.476Z,21779.63
2023-05-22T19:26:58.035Z,21865.03
2023-05-22T19:29:26.193Z,21842.66
2023-05-22T19:31:54.379Z,21846.72
2023-05-22T19:34:22.555Z,21832.50
2023-05-22T19:36:51.730Z,21848.75
2023-05-22T19:39:19.856Z,21838.59
2023-05-22T19:41:48.001Z,21844.69
2023-05-22T19:44:17.516Z,21830.47
2023-05-22T19:46:46.231Z,21822.31
2023-05-22T19:49:14.666Z,21836.56
2023-05-22T19:51:44.041Z,21828.44
2023-05-22T19:54:12.253Z,21806.06
2023-05-22T19:56:40.414Z,21828.44
2023-05-22T19:59:08.529Z,21771.50
2023-05-22T20:01:38.080Z,21765.38
2023-05-22T20:04:06.230Z,21791.81
2023-05-22T20:06:35.072Z,21777.59
2023-05-22T20:09:05.725Z,21789.78
2023-05-22T20:11:33.903Z,21797.94
2023-05-22T20:14:03.376Z,21771.50
2023-05-22T20:16:31.816Z,21745.06
2023-05-22T20:19:02.364Z,21753.19
2023-05-22T20:21:30.920Z,21763.34
2023-05-22T20:23:59.149Z,21732.84
2023-05-22T20:26:27.674Z,21777.59
2023-05-22T20:28:55.788Z,21755.22
2023-05-22T20:31:23.913Z,21761.31
2023-05-22T20:33:52.096Z,21722.69
2023-05-22T20:36:22.298Z,21785.72
2023-05-22T20:38:50.422Z,21724.72
2023-05-22T20:41:19.538Z,21702.34
2023-05-22T20:43:47.998Z,21704.38
2023-05-22T20:46:16.185Z,21712.53
2023-05-22T20:48:46.852Z,21726.75
2023-05-22T20:51:15.602Z,21712.53
2023-05-22T20:53:45.175Z,21743.03
2023-05-22T20:56:13.311Z,21698.28
2023-05-22T20:58:42.348Z,21690.16
2023-05-22T21:01:10.676Z,21700.31
2023-05-22T21:03:39.011Z,21635.25
2023-05-22T21:06:07.659Z,21700.31
2023-05-22T21:08:35.789Z,21690.16
2023-05-22T21:11:06.820Z,21700.31
2023-05-22T21:13:34.926Z,21655.59
2023-05-22T21:16:03.032Z,21673.88
2023-05-22T21:18:31.198Z,21584.44
2023-05-22T21:20:59.386Z,21539.69
2023-05-22T21:23:27.568Z,21539.69
2023-05-22T21:25:55.785Z,21541.72
2023-05-22T21:28:25.409Z,21509.19
2023-05-22T21:30:53.550Z,21474.63
2023-05-22T21:33:21.742Z,21438.03
2023-05-22T21:35:50.096Z,21419.72
2023-05-22T21:38:18.227Z,21444.13
2023-05-22T21:40:46.405Z,21458.38
2023-05-22T21:43:14.601Z,21421.75
2023-05-22T21:45:44.093Z,21419.72
2023-05-22T21:48:12.355Z,21387.19
2023-05-22T21:50:40.768Z,21356.69
2023-05-22T21:53:09.059Z,21338.41
2023-05-22T21:55:37.235Z,21356.69
2023-05-22T21:58:05.406Z,21360.78
2023-05-22T22:00:33.524Z,21360.78
2023-05-22T22:03:03.232Z,21366.88
2023-05-22T22:05:31.450Z,21320.09
2023-05-22T22:07:59.598Z,21342.47
2023-05-22T22:10:27.738Z,21309.94
2023-05-22T22:12:55.994Z,21326.22
2023-05-22T22:15:24.405Z,21297.75
2023-05-22T22:17:53.216Z,21291.66
2023-05-22T22:20:30.507Z,21281.47
2023-05-22T22:23:02.145Z,21277.41
2023-05-22T22:25:30.287Z,21244.88
2023-05-22T22:27:58.493Z,21293.69
2023-05-22T22:30:26.674Z,21216.41
2023-05-22T22:32:54.848Z,21202.19
2023-05-22T22:35:24.408Z,21196.09
2023-05-22T22:37:52.563Z,21143.22
2023-05-22T22:40:20.756Z,21163.56
2023-05-22T22:42:48.881Z,21157.47
2023-05-22T22:45:17.055Z,21133.06
2023-05-22T22:47:47.353Z,21104.59
2023-05-22T22:50:15.960Z,21108.66
2023-05-22T22:52:46.574Z,21098.50
2023-05-22T22:55:14.849Z,21106.63
2023-05-22T22:57:44.657Z,21118.84
2023-05-22T23:00:14.256Z,21106.63
2023-05-22T23:02:42.554Z,21104.59
2023-05-22T23:05:11.326Z,21076.13
2023-05-22T23:07:39.537Z,21100.53
2023-05-22T23:10:10.691Z,21068.00
2023-05-22T23:12:38.836Z,21110.69
2023-05-22T23:15:09.100Z,21049.72
2023-05-22T23:17:37.430Z,21061.91
2023-05-22T23:20:07.090Z,21100.53
2023-05-22T23:22:35.278Z,21045.63
2023-05-22T23:25:03.736Z,21072.06
2023-05-22T23:27:33.304Z,21082.25
2023-05-22T23:30:01.537Z,21104.59
2023-05-22T23:32:29.888Z,21053.78
2023-05-22T23:34:58.062Z,21063.94
2023-05-22T23:37:26.218Z,21057.84
2023-05-22T23:39:55.347Z,21065.97
2023-05-22T23:42:23.457Z,21129.00
2023-05-22T23:44:52.966Z,21094.44
2023-05-22T23:47:21.387Z,21078.16
2023-05-22T23:49:49.557Z,21045.63
2023-05-22T23:52:17.707Z,21104.59
2023-05-22T23:54:46.508Z,21112.72
2023-05-22T23:57:14.738Z,21061.91
2023-05-22T23:59:43.657Z,21051.75
